Time;durP1;ratioP1;P1;durP2;ratioP2;P2;SDS_P1;SDS_P2;PMS_P1;PMS_P2;Temp;Humidity;BMP_temperature;BMP_pressure;BME280_temperature;BME280_humidity;BME280_pressure;Samples;Min_cycle;Max_cycle;Signal;HPM_P1;HPM_P2
2024/04/07 00:00:22;;;;;;;6.20;2.08;;;20.00;56.20;21.70;100712.00;;;;4990586;28;20206;-78
2024/04/07 00:02:50;;;;;;;1.80;1.50;;;20.00;56.30;21.70;100710.00;;;;4990088;28;20229;-79
2024/04/07 00:05:16;;;;;;;1.98;1.45;;;20.00;56.30;21.70;100700.00;;;;4990831;28;20197;-78
2024/04/07 00:07:44;;;;;;;5.32;1.73;;;20.00;56.40;21.70;100690.00;;;;4989327;28;20197;-76
2024/04/07 00:10:10;;;;;;;5.07;2.20;;;20.00;56.50;21.70;100690.00;;;;5000510;28;20208;-76
2024/04/07 00:12:38;;;;;;;3.53;1.60;;;20.00;56.60;21.70;100689.00;;;;4997336;28;20202;-76
2024/04/07 00:15:07;;;;;;;3.47;1.20;;;20.00;56.70;21.70;100701.00;;;;4990423;28;20591;-76
2024/04/07 00:17:34;;;;;;;3.30;1.65;;;20.00;56.70;21.70;100714.00;;;;4990198;28;20233;-76
2024/04/07 00:20:01;;;;;;;3.28;1.80;;;20.00;56.60;21.70;100725.00;;;;4988773;28;20407;-76
2024/04/07 00:22:28;;;;;;;6.75;1.73;;;20.00;56.50;21.70;100739.00;;;;4988562;28;20228;-76
2024/04/07 00:24:56;;;;;;;4.30;1.70;;;20.00;56.60;21.70;100747.00;;;;4990036;28;20201;-76
2024/04/07 00:27:23;;;;;;;3.85;1.67;;;20.00;56.60;21.70;100766.00;;;;4987973;28;20228;-76
2024/04/07 00:29:51;;;;;;;2.45;1.58;;;20.00;56.60;21.70;100780.00;;;;4989715;28;20202;-76
2024/04/07 00:32:18;;;;;;;4.10;1.77;;;20.10;56.60;21.70;100796.00;;;;4990009;28;20714;-77
2024/04/07 00:34:48;;;;;;;4.22;1.70;;;20.00;56.50;21.70;100794.00;;;;4980926;28;20205;-76
2024/04/07 00:37:15;;;;;;;5.63;1.88;;;20.10;56.40;21.70;100798.00;;;;4978998;28;20186;-77
2024/04/07 00:39:41;;;;;;;4.68;1.40;;;20.10;56.30;21.70;100804.00;;;;4989000;28;20198;-77
2024/04/07 00:42:09;;;;;;;3.30;1.73;;;20.10;56.30;21.70;100810.00;;;;4989515;28;20817;-77
2024/04/07 00:44:36;;;;;;;2.45;1.23;;;20.10;56.30;21.70;100801.00;;;;4988759;28;20198;-76
2024/04/07 00:47:05;;;;;;;5.70;1.67;;;20.20;56.30;21.70;100791.00;;;;4989548;28;20579;-76
2024/04/07 00:49:33;;;;;;;3.03;1.83;;;20.20;56.10;21.70;100802.00;;;;4989074;28;20233;-76
2024/04/07 00:52:00;;;;;;;5.05;1.58;;;20.20;56.00;21.80;100819.00;;;;4985037;28;20667;-76
2024/04/07 00:54:27;;;;;;;10.50;1.58;;;20.20;55.90;21.80;100815.00;;;;4989568;28;20695;-77
2024/04/07 00:56:53;;;;;;;3.20;1.23;;;20.20;55.90;21.80;100819.00;;;;4988719;28;20205;-77
2024/04/07 00:59:20;;;;;;;2.67;1.50;;;20.20;55.80;21.80;100827.00;;;;4989170;28;20566;-76
2024/04/07 01:01:47;;;;;;;3.22;1.52;;;20.30;55.80;21.80;100835.00;;;;4988590;28;20244;-77
2024/04/07 01:04:14;;;;;;;3.70;1.30;;;20.30;55.70;21.80;100845.00;;;;4980850;28;20224;-77
2024/04/07 01:06:41;;;;;;;4.70;1.30;;;20.30;56.30;21.80;100830.00;;;;4981525;28;20603;-76
2024/04/07 01:09:09;;;;;;;6.40;1.63;;;20.30;55.70;21.80;100844.00;;;;4986249;28;20213;-76
2024/04/07 01:11:36;;;;;;;3.22;1.20;;;20.40;55.80;21.80;100844.00;;;;4989432;28;20495;-77
2024/04/07 01:14:02;;;;;;;1.52;0.90;;;20.40;55.80;21.80;100853.00;;;;4987862;28;20289;-76
2024/04/07 01:16:30;;;;;;;2.38;1.02;;;20.40;55.80;21.80;100856.00;;;;4989043;28;20229;-77
2024/04/07 01:18:56;;;;;;;3.92;0.90;;;20.40;55.80;21.80;100844.00;;;;4989788;28;20197;-75
2024/04/07 01:21:24;;;;;;;3.17;0.90;;;20.40;55.70;21.80;100847.00;;;;4988007;28;20209;-77
2024/04/07 01:23:51;;;;;;;2.78;0.80;;;20.50;55.60;21.80;100856.00;;;;4987928;28;20240;-77
2024/04/07 01:26:18;;;;;;;1.25;0.80;;;20.50;55.60;21.90;100871.00;;;;4987065;28;20297;-77
2024/04/07 01:28:44;;;;;;;1.80;0.50;;;20.50;55.60;21.90;100871.00;;;;4988541;28;20205;-76
2024/04/07 01:31:11;;;;;;;5.80;1.10;;;20.50;55.60;21.80;100871.00;;;;4989221;28;20219;-76
2024/04/07 01:33:37;;;;;;;3.13;0.85;;;20.50;55.50;21.80;100865.00;;;;4988533;28;20194;-76
2024/04/07 01:36:05;;;;;;;2.33;0.68;;;20.50;55.50;21.80;100861.00;;;;4999488;28;20199;-77
2024/04/07 01:38:31;;;;;;;2.10;0.70;;;20.60;55.50;21.80;100865.00;;;;4987361;28;20603;-76
2024/04/07 01:40:59;;;;;;;1.45;0.77;;;20.50;55.40;21.80;100856.00;;;;4987994;28;20213;-76
2024/04/07 01:43:25;;;;;;;1.20;0.60;;;20.60;55.40;21.80;100863.00;;;;4988834;28;20221;-76
2024/04/07 01:45:52;;;;;;;1.95;0.60;;;20.50;55.20;21.80;100889.00;;;;4988567;28;20201;-75
2024/04/07 01:48:18;;;;;;;3.00;0.52;;;20.50;55.20;21.80;100880.00;;;;4988033;28;20230;-76
2024/04/07 01:50:48;;;;;;;0.90;0.45;;;20.50;55.20;21.80;100890.00;;;;4987308;28;20197;-76
2024/04/07 01:53:13;;;;;;;1.48;0.60;;;20.50;55.10;21.80;100897.00;;;;4988592;28;20202;-76
2024/04/07 01:55:41;;;;;;;1.23;0.32;;;20.50;55.10;21.80;100897.00;;;;4987086;28;20690;-76
2024/04/07 01:58:08;;;;;;;4.88;0.55;;;20.50;55.10;21.70;100906.00;;;;4987839;28;20202;-76
2024/04/07 02:00:35;;;;;;;3.08;0.90;;;20.50;55.10;21.70;100911.00;;;;4987811;28;20341;-76
2024/04/07 02:03:01;;;;;;;1.75;0.47;;;20.50;55.10;21.70;100935.00;;;;4987829;28;20225;-78
2024/04/07 02:05:28;;;;;;;0.82;0.50;;;20.40;55.00;21.70;100939.00;;;;4992111;28;20651;-76
2024/04/07 02:07:54;;;;;;;1.30;0.50;;;20.40;55.10;21.70;100943.00;;;;4979838;28;20213;-76
2024/04/07 02:10:22;;;;;;;0.68;0.38;;;20.40;55.10;21.70;100955.00;;;;5010757;28;20670;-76
2024/04/07 02:12:48;;;;;;;1.17;0.70;;;20.40;55.10;21.70;100973.00;;;;4994003;28;20194;-76
2024/04/07 02:15:16;;;;;;;2.70;0.35;;;20.40;55.00;21.70;100970.00;;;;4993091;28;20204;-76
2024/04/07 02:17:42;;;;;;;1.75;0.57;;;20.30;55.10;21.70;100975.00;;;;4992071;28;20201;-77
2024/04/07 02:20:10;;;;;;;2.10;0.60;;;20.30;55.10;21.60;100983.00;;;;4991835;28;20656;-77
2024/04/07 02:22:36;;;;;;;2.13;0.88;;;20.30;55.20;21.60;100967.00;;;;4991681;28;20397;-78
2024/04/07 02:25:03;;;;;;;3.40;1.00;;;20.30;55.10;21.60;100995.00;;;;4992400;28;20565;-77
2024/04/07 02:27:29;;;;;;;1.83;0.55;;;20.30;55.30;21.60;100974.00;;;;4991989;28;20198;-77
2024/04/07 02:29:56;;;;;;;5.40;0.75;;;20.30;55.40;21.50;100972.00;;;;4991556;28;20676;-77
2024/04/07 02:32:23;;;;;;;2.97;0.55;;;20.20;55.50;21.50;100979.00;;;;4991730;28;20233;-77
2024/04/07 02:34:51;;;;;;;1.25;0.65;;;20.20;55.60;21.50;100968.00;;;;4991106;28;20197;-78
2024/04/07 02:37:17;;;;;;;1.88;0.60;;;20.20;55.80;21.50;100967.00;;;;4990537;28;20292;-77
2024/04/07 02:39:44;;;;;;;1.08;0.60;;;20.10;55.70;21.40;100971.00;;;;4991938;28;20208;-77
2024/04/07 02:42:10;;;;;;;5.70;1.10;;;20.10;55.90;21.40;100973.00;;;;4993471;28;20202;-77
2024/04/07 02:50:08;;;;;;;2.70;0.55;;;20.00;56.20;21.30;100937.00;;;;4990709;28;20652;-78
2024/04/07 02:52:36;;;;;;;1.25;0.50;;;19.90;56.20;21.20;100920.00;;;;4991655;28;20209;-77
2024/04/07 02:55:03;;;;;;;1.35;0.40;;;19.90;56.20;21.20;100916.00;;;;4989877;28;20205;-77
2024/04/07 02:57:29;;;;;;;0.90;0.52;;;19.80;56.30;21.20;100895.00;;;;4986371;28;20189;-78
2024/04/07 02:59:56;;;;;;;0.35;0.13;;;19.80;56.40;21.10;100888.00;;;;4992516;28;20517;-77
2024/04/07 03:02:23;;;;;;;1.15;0.50;;;19.70;56.40;21.10;100908.00;;;;4989539;28;20206;-77
2024/04/07 03:04:49;;;;;;;1.50;0.80;;;19.70;56.30;21.10;100914.00;;;;4990232;28;20194;-77
2024/04/07 03:07:17;;;;;;;2.92;0.30;;;19.70;56.50;21.00;100906.00;;;;4990262;28;20209;-77
2024/04/07 03:09:43;;;;;;;2.00;0.28;;;19.60;56.50;21.00;100906.00;;;;4990692;28;20218;-78
2024/04/07 03:12:10;;;;;;;2.28;0.50;;;19.60;56.40;21.00;100902.00;;;;4991073;28;20209;-77
2024/04/07 03:14:36;;;;;;;0.70;0.40;;;19.50;56.40;21.00;100899.00;;;;4990249;28;20205;-78
2024/04/07 03:17:04;;;;;;;1.65;0.57;;;19.50;56.50;20.90;100889.00;;;;4998103;28;20585;-77
2024/04/07 03:19:29;;;;;;;0.60;0.22;;;19.50;56.50;20.90;100874.00;;;;4976801;28;20204;-77
2024/04/07 03:21:56;;;;;;;1.60;0.50;;;19.50;56.50;20.90;100874.00;;;;4990278;28;20201;-78
2024/04/07 03:24:27;;;;;;;0.77;0.20;;;19.40;56.50;20.90;100874.00;;;;4986192;28;20221;-77
2024/04/07 03:26:54;;;;;;;1.10;0.38;;;19.40;56.60;20.90;100870.00;;;;4989339;28;20268;-77
2024/04/07 03:29:20;;;;;;;1.08;0.47;;;19.40;56.50;20.80;100905.00;;;;4989789;28;20690;-78
2024/04/07 03:31:47;;;;;;;1.13;0.30;;;19.40;56.60;20.80;100914.00;;;;4989700;28;20197;-78
2024/04/07 03:34:13;;;;;;;1.40;0.30;;;19.40;57.20;20.80;100908.00;;;;4985693;28;20209;-78
2024/04/07 03:36:40;;;;;;;1.65;0.30;;;19.30;56.70;20.80;100928.00;;;;4988192;28;20210;-77
2024/04/07 03:39:07;;;;;;;1.00;0.30;;;19.30;56.70;20.80;100906.00;;;;4990371;28;20205;-78
2024/04/07 03:41:36;;;;;;;0.93;0.50;;;19.30;56.70;20.70;100908.00;;;;4990322;28;20438;-77
2024/04/07 03:44:03;;;;;;;2.63;0.30;;;19.30;56.80;20.80;100921.00;;;;4990088;28;20228;-77
2024/04/07 03:46:31;;;;;;;0.65;0.20;;;19.30;56.80;20.70;100923.00;;;;4990091;28;20201;-77
2024/04/07 03:48:59;;;;;;;1.00;0.40;;;19.20;56.70;20.70;100910.00;;;;4988831;28;20606;-77
2024/04/07 03:51:26;;;;;;;1.08;0.52;;;19.30;56.80;20.70;100913.00;;;;4989479;28;20209;-77
2024/04/07 03:53:52;;;;;;;0.95;0.38;;;19.20;56.60;20.70;100906.00;;;;4982745;28;20197;-77
2024/04/07 03:56:19;;;;;;;0.57;0.30;;;19.20;56.70;20.70;100899.00;;;;4978385;28;20210;-77
2024/04/07 03:58:46;;;;;;;0.30;0.30;;;19.20;56.60;20.70;100900.00;;;;4972065;28;20210;-77
2024/04/07 04:01:15;;;;;;;0.40;0.30;;;19.20;56.60;20.70;100923.00;;;;4989704;28;20280;-77
2024/04/07 04:03:43;;;;;;;0.25;0.10;;;19.20;56.60;20.60;100908.00;;;;4982718;28;20224;-77
2024/04/07 04:06:10;;;;;;;0.90;0.10;;;19.20;56.50;20.70;100905.00;;;;4988685;28;20194;-77
2024/04/07 04:08:36;;;;;;;2.45;0.40;;;19.20;56.50;20.70;100907.00;;;;5003115;28;20235;-77
2024/04/07 04:11:05;;;;;;;0.40;0.10;;;19.20;56.40;20.70;100910.00;;;;4989558;28;20565;-77
2024/04/07 04:13:31;;;;;;;0.63;0.30;;;19.20;56.40;20.70;100935.00;;;;4991015;28;20225;-77
2024/04/07 04:16:00;;;;;;;0.20;0.10;;;19.20;56.40;20.60;100937.00;;;;4988588;28;20284;-77
2024/04/07 04:18:27;;;;;;;0.57;0.20;;;19.20;56.30;20.70;100914.00;;;;4974255;28;20194;-77
2024/04/07 04:20:54;;;;;;;0.85;0.32;;;19.20;56.20;20.70;100899.00;;;;4989904;28;20659;-78
2024/04/07 04:23:20;;;;;;;0.80;0.30;;;19.20;56.10;20.70;100923.00;;;;4989586;28;20222;-78
2024/04/07 04:25:52;;;;;;;0.55;0.20;;;19.20;56.00;20.60;100928.00;;;;5004219;28;20248;-77
2024/04/07 04:28:19;;;;;;;0.13;0.03;;;19.20;55.90;20.70;100936.00;;;;4995568;28;20216;-77
2024/04/07 04:30:53;;;;;;;3.22;0.32;;;19.20;55.80;20.60;100943.00;;;;4989720;28;20281;-77
2024/04/07 04:33:21;;;;;;;1.55;0.25;;;19.20;55.70;20.60;100949.00;;;;4978585;28;20194;-77
2024/04/07 04:35:49;;;;;;;1.92;0.17;;;19.20;55.60;20.60;100970.00;;;;4988697;28;20202;-77
2024/04/07 04:38:15;;;;;;;1.58;0.20;;;19.20;55.60;20.60;100957.00;;;;4989791;28;20201;-77
2024/04/07 04:40:42;;;;;;;1.52;0.22;;;19.20;55.50;20.60;100960.00;;;;4989209;28;20209;-77
2024/04/07 04:43:08;;;;;;;0.60;0.10;;;19.20;55.40;20.60;100958.00;;;;4999003;28;20252;-77
2024/04/07 04:45:35;;;;;;;0.10;0.10;;;19.20;55.40;20.60;100959.00;;;;4990277;28;20699;-77
2024/04/07 04:48:01;;;;;;;0.73;0.05;;;19.20;55.40;20.60;100964.00;;;;4989071;28;20356;-77
2024/04/07 04:50:29;;;;;;;0.20;0.00;;;19.20;55.30;20.60;100969.00;;;;4989532;28;20276;-77
2024/04/07 04:52:56;;;;;;;0.38;0.10;;;19.20;55.10;20.60;100965.00;;;;4988796;28;20511;-77
2024/04/07 04:55:23;;;;;;;0.90;0.10;;;19.20;55.10;20.60;100974.00;;;;4988788;28;21524;-77
2024/04/07 04:57:49;;;;;;;0.35;0.17;;;19.20;55.10;20.60;100970.00;;;;4987482;28;20284;-77
2024/04/07 05:00:16;;;;;;;1.00;0.17;;;19.20;55.00;20.60;100977.00;;;;4989254;28;20208;-77
2024/04/07 05:02:42;;;;;;;0.85;0.10;;;19.20;55.00;20.60;100984.00;;;;4985310;28;20202;-77
2024/04/07 05:05:10;;;;;;;0.85;0.20;;;19.20;55.00;20.60;100985.00;;;;4988908;28;20197;-77
2024/04/07 05:07:38;;;;;;;0.85;0.20;;;19.20;55.00;20.50;100988.00;;;;4989327;28;20330;-77
2024/04/07 05:10:06;;;;;;;0.20;0.10;;;19.20;55.00;20.50;101001.00;;;;4988151;28;20198;-77
2024/04/07 05:12:32;;;;;;;0.85;0.10;;;19.20;55.00;20.50;101001.00;;;;4988497;28;20485;-78
2024/04/07 05:14:59;;;;;;;0.30;0.13;;;19.20;54.90;20.50;101014.00;;;;4986968;28;20198;-78
2024/04/07 05:17:25;;;;;;;1.92;0.10;;;19.20;55.00;20.50;101014.00;;;;4984867;28;20193;-77
2024/04/07 05:19:52;;;;;;;1.02;0.30;;;19.10;54.90;20.50;101018.00;;;;4994151;28;20369;-77
2024/04/07 05:22:18;;;;;;;0.50;0.20;;;19.10;54.90;20.50;101012.00;;;;4993082;28;20194;-77
2024/04/07 05:24:46;;;;;;;1.92;0.20;;;19.10;54.90;20.50;101014.00;;;;4989011;28;20344;-77
2024/04/07 05:27:12;;;;;;;0.57;0.20;;;19.10;55.00;20.50;101026.00;;;;4988261;28;20689;-77
2024/04/07 05:29:39;;;;;;;0.55;0.20;;;19.10;55.00;20.50;101032.00;;;;4990008;28;20193;-77
2024/04/07 05:32:07;;;;;;;1.15;0.25;;;19.10;55.00;20.50;101032.00;;;;4990773;28;20201;-78
2024/04/07 05:34:34;;;;;;;0.28;0.10;;;19.10;55.10;20.50;101041.00;;;;5002293;28;20232;-78
2024/04/07 05:37:02;;;;;;;1.10;0.25;;;19.00;55.10;20.40;101034.00;;;;4969920;28;20657;-78
2024/04/07 05:39:29;;;;;;;0.88;0.20;;;19.00;55.10;20.40;101041.00;;;;4977579;28;20216;-78
2024/04/07 05:41:57;;;;;;;0.88;0.20;;;19.00;55.10;20.40;101034.00;;;;4986894;28;20206;-78
2024/04/07 05:44:24;;;;;;;0.40;0.25;;;19.00;55.20;20.40;101039.00;;;;4990023;28;20265;-77
2024/04/07 05:46:51;;;;;;;0.95;0.45;;;19.00;55.70;20.40;101048.00;;;;4987539;28;20202;-78
2024/04/07 05:49:18;;;;;;;0.68;0.10;;;19.00;55.20;20.40;101050.00;;;;4988073;28;20232;-77
2024/04/07 05:51:44;;;;;;;2.42;0.50;;;18.90;55.20;20.40;101057.00;;;;4989125;28;20209;-77
2024/04/07 05:54:11;;;;;;;0.43;0.20;;;18.90;55.20;20.30;101056.00;;;;4988914;28;20225;-78
2024/04/07 05:56:37;;;;;;;0.30;0.03;;;18.90;55.20;20.30;101060.00;;;;4988412;28;20205;-77
2024/04/07 05:59:05;;;;;;;0.57;0.20;;;18.90;55.30;20.30;101059.00;;;;4987545;28;20212;-77
2024/04/07 06:01:31;;;;;;;0.98;0.20;;;18.80;55.30;20.30;101065.00;;;;4986965;28;20213;-77
2024/04/07 06:03:58;;;;;;;0.52;0.20;;;18.90;55.50;20.30;101072.00;;;;4988120;28;20218;-77
2024/04/07 06:06:24;;;;;;;0.55;0.28;;;18.80;55.40;20.30;101075.00;;;;4988668;28;20552;-77
2024/04/07 06:08:51;;;;;;;0.10;0.00;;;18.80;55.50;20.30;101091.00;;;;4987998;28;20217;-77
2024/04/07 06:11:17;;;;;;;0.88;0.52;;;18.80;55.50;20.30;101091.00;;;;4986297;28;20575;-77
2024/04/07 06:13:44;;;;;;;0.22;0.10;;;18.70;55.50;20.20;101086.00;;;;4990022;28;20206;-77
2024/04/07 06:16:11;;;;;;;0.95;0.20;;;18.80;55.60;20.20;101090.00;;;;5007698;28;20659;-77
2024/04/07 06:18:38;;;;;;;1.20;0.43;;;18.80;55.70;20.30;101094.00;;;;4988217;28;20284;-77
2024/04/07 06:21:07;;;;;;;1.88;0.30;;;18.80;55.80;20.30;101091.00;;;;4991010;28;20201;-77
2024/04/07 06:23:34;;;;;;;0.30;0.10;;;18.80;55.90;20.40;101095.00;;;;4987997;28;20264;-77
2024/04/07 06:26:00;;;;;;;0.22;0.13;;;18.80;56.10;20.40;101093.00;;;;4985749;28;20206;-77
2024/04/07 06:28:27;;;;;;;0.52;0.28;;;18.80;56.10;20.40;101106.00;;;;4987458;28;20727;-77
2024/04/07 06:30:53;;;;;;;1.95;0.35;;;18.90;56.20;20.50;101105.00;;;;4980174;28;20197;-77
2024/04/07 06:33:26;;;;;;;0.30;0.20;;;18.90;56.20;20.60;101101.00;;;;4978288;28;20194;-77
2024/04/07 06:35:52;;;;;;;7.07;0.65;;;18.90;56.30;20.60;101099.00;;;;4986055;28;20260;-77
2024/04/07 06:38:19;;;;;;;3.28;0.60;;;19.00;56.30;20.70;101111.00;;;;4987736;28;20659;-78
2024/04/07 06:40:45;;;;;;;0.15;0.10;;;19.10;56.30;20.70;101106.00;;;;4994091;28;20662;-78
2024/04/07 06:43:12;;;;;;;0.95;0.20;;;19.10;56.30;20.70;101103.00;;;;5007417;28;20220;-78
2024/04/07 06:45:38;;;;;;;1.85;0.45;;;19.10;56.20;20.80;101105.00;;;;4999879;28;20224;-78
2024/04/07 06:48:06;;;;;;;2.33;0.35;;;19.20;56.20;20.80;101111.00;;;;4987183;28;20561;-78
2024/04/07 06:50:34;;;;;;;0.45;0.17;;;19.20;56.30;20.90;101111.00;;;;4989288;28;20198;-79
2024/04/07 06:53:01;;;;;;;0.63;0.10;;;19.30;56.40;20.90;101111.00;;;;4976711;28;20210;-78
2024/04/07 06:55:27;;;;;;;1.35;0.30;;;19.40;56.40;21.00;101123.00;;;;4988379;28;20198;-78
2024/04/07 06:57:54;;;;;;;0.82;0.40;;;19.40;56.30;21.00;101120.00;;;;4992180;28;20210;-78
2024/04/07 07:00:20;;;;;;;2.67;0.30;;;19.50;56.40;21.10;101112.00;;;;4991018;28;20690;-78
2024/04/07 07:02:47;;;;;;;1.40;0.40;;;19.50;56.30;21.10;101112.00;;;;4989660;28;20649;-79
2024/04/07 07:05:13;;;;;;;3.25;0.35;;;19.60;56.30;21.20;101120.00;;;;4988824;28;20240;-78
2024/04/07 07:07:41;;;;;;;1.55;0.40;;;19.60;56.30;21.20;101113.00;;;;4990532;28;20834;-78
2024/04/07 07:10:07;;;;;;;0.57;0.20;;;19.70;56.30;21.30;101118.00;;;;4997511;28;20201;-78
2024/04/07 07:12:35;;;;;;;1.25;0.22;;;19.70;56.20;21.30;101117.00;;;;4983541;28;20277;-79
2024/04/07 07:15:01;;;;;;;1.45;0.30;;;19.80;56.20;21.40;101116.00;;;;4988983;28;20198;-85
2024/04/07 07:17:28;;;;;;;0.90;0.30;;;19.80;56.20;21.40;101126.00;;;;4990278;28;20288;-79
2024/04/07 07:19:55;;;;;;;1.05;0.25;;;19.90;56.20;21.50;101132.00;;;;4990000;28;20583;-78
2024/04/07 07:22:21;;;;;;;0.95;0.40;;;20.00;56.20;21.50;101140.00;;;;4990907;28;20193;-79
2024/04/07 07:24:49;;;;;;;1.67;0.50;;;20.00;56.20;21.50;101145.00;;;;4990622;28;20248;-79
2024/04/07 07:27:15;;;;;;;3.92;0.30;;;20.00;56.10;21.60;101136.00;;;;4989596;28;20204;-79
2024/04/07 07:29:42;;;;;;;0.93;0.43;;;20.10;56.10;21.60;101139.00;;;;4989908;28;20839;-79
2024/04/07 07:32:10;;;;;;;1.65;0.30;;;20.10;56.00;21.70;101149.00;;;;4992558;28;20202;-79
2024/04/07 07:34:37;;;;;;;1.13;0.40;;;20.20;56.10;21.70;101140.00;;;;4990808;28;20213;-79
2024/04/07 07:37:03;;;;;;;2.95;0.32;;;20.20;56.20;21.80;101151.00;;;;4989289;28;20208;-79
2024/04/07 07:39:30;;;;;;;1.20;0.40;;;20.30;56.20;21.80;101166.00;;;;4990923;28;20277;-78
2024/04/07 07:41:57;;;;;;;1.27;0.30;;;20.30;56.10;21.90;101157.00;;;;4987491;28;20197;-78
2024/04/07 07:44:25;;;;;;;2.13;0.30;;;20.40;56.10;21.90;101164.00;;;;4970795;28;20229;-79
2024/04/07 07:46:50;;;;;;;1.55;0.50;;;20.40;56.10;22.00;101162.00;;;;4979332;28;20658;-79
2024/04/07 07:49:17;;;;;;;1.55;0.55;;;20.50;56.10;22.00;101162.00;;;;5001424;28;20236;-80
2024/04/07 07:51:44;;;;;;;2.55;0.88;;;20.50;56.00;22.10;101156.00;;;;4994886;28;20205;-80
2024/04/07 07:54:11;;;;;;;1.83;0.70;;;20.60;56.00;22.20;101169.00;;;;4989488;28;20601;-79
2024/04/07 07:56:37;;;;;;;0.73;0.38;;;20.70;56.00;22.20;101166.00;;;;4990212;28;20201;-80
2024/04/07 07:59:05;;;;;;;0.85;0.30;;;20.70;55.90;22.20;101169.00;;;;4989424;28;20695;-79
2024/04/07 08:01:31;;;;;;;2.45;0.35;;;20.70;55.90;22.30;101182.00;;;;4988598;28;20213;-79
2024/04/07 08:03:58;;;;;;;2.47;1.10;;;20.80;55.80;22.40;101166.00;;;;4988839;28;20221;-79
2024/04/07 08:06:24;;;;;;;1.35;0.60;;;20.90;55.90;22.40;101173.00;;;;4990462;28;20778;-80
2024/04/07 08:08:51;;;;;;;1.60;0.88;;;20.90;55.90;22.50;101186.00;;;;4989313;28;20218;-80
2024/04/07 08:11:18;;;;;;;2.17;0.85;;;20.90;55.70;22.50;101179.00;;;;4989404;28;20210;-80
2024/04/07 08:13:45;;;;;;;0.85;0.40;;;21.00;55.70;22.60;101180.00;;;;4988411;28;20287;-80
2024/04/07 08:16:12;;;;;;;2.35;0.40;;;21.00;55.70;22.60;101183.00;;;;4989537;28;20204;-79
2024/04/07 08:18:40;;;;;;;1.40;0.57;;;21.10;55.60;22.70;101196.00;;;;4989421;28;20194;-78
2024/04/07 08:21:07;;;;;;;1.30;0.50;;;21.20;56.10;22.70;101195.00;;;;4988608;28;20225;-79
2024/04/07 08:23:34;;;;;;;1.17;0.65;;;21.20;55.50;22.80;101203.00;;;;4991416;28;20193;-78
2024/04/07 08:26:01;;;;;;;3.25;0.70;;;21.20;55.20;22.80;101200.00;;;;4979546;28;20209;-78
2024/04/07 08:28:29;;;;;;;1.27;0.77;;;21.30;55.10;22.90;101192.00;;;;4995479;28;20523;-79
2024/04/07 08:30:57;;;;;;;1.77;0.63;;;21.30;55.10;22.90;101198.00;;;;4985149;28;20208;-79
2024/04/07 08:33:25;;;;;;;1.52;0.40;;;21.40;55.00;22.90;101206.00;;;;4986225;28;20289;-79
2024/04/07 08:35:51;;;;;;;1.63;0.52;;;21.40;55.00;23.00;101215.00;;;;4988836;28;20209;-80
2024/04/07 08:38:18;;;;;;;1.63;0.60;;;21.50;55.00;23.10;101203.00;;;;4989755;28;20537;-79
2024/04/07 08:40:46;;;;;;;2.38;0.60;;;21.60;54.80;23.10;101205.00;;;;4993863;28;20202;-79
2024/04/07 08:43:15;;;;;;;2.13;0.73;;;21.60;54.60;23.20;101194.00;;;;4980571;28;20644;-80
2024/04/07 08:45:42;;;;;;;2.72;0.50;;;21.70;54.70;23.30;101203.00;;;;4985280;28;20233;-80
2024/04/07 08:48:12;;;;;;;2.30;0.40;;;21.70;54.90;23.40;101201.00;;;;4987895;28;20606;-80
2024/04/07 08:50:41;;;;;;;3.83;0.60;;;21.90;55.10;23.50;101216.00;;;;4989317;28;20190;-80
2024/04/07 08:53:10;;;;;;;2.22;0.65;;;22.00;54.80;23.60;101209.00;;;;4989467;28;20209;-80
2024/04/07 08:55:37;;;;;;;1.45;0.52;;;22.10;54.60;23.70;101210.00;;;;4988228;28;20205;-80
2024/04/07 08:58:06;;;;;;;1.35;0.63;;;22.20;54.50;23.80;101211.00;;;;4996586;28;20213;-80
2024/04/07 09:00:32;;;;;;;2.35;0.82;;;22.20;54.40;23.90;101215.00;;;;4987709;28;20676;-80
2024/04/07 09:03:02;;;;;;;1.75;0.65;;;22.40;53.90;23.90;101224.00;;;;4988682;28;20198;-79
2024/04/07 09:05:28;;;;;;;2.05;0.50;;;22.50;53.60;23.90;101224.00;;;;4983644;28;20700;-80
2024/04/07 09:07:57;;;;;;;1.25;0.40;;;22.50;53.10;23.90;101225.00;;;;4985963;28;20193;-80
2024/04/07 09:10:23;;;;;;;1.63;0.50;;;22.50;52.90;24.00;101224.00;;;;4987709;28;20205;-81
2024/04/07 09:12:53;;;;;;;1.50;0.82;;;22.60;52.80;24.00;101227.00;;;;4983605;28;20206;-79
2024/04/07 09:15:19;;;;;;;9.65;0.93;;;22.60;52.50;24.00;101227.00;;;;4989229;28;20212;-79
2024/04/07 09:17:46;;;;;;;2.63;0.57;;;22.60;52.30;24.00;101221.00;;;;4987709;28;20198;-78
2024/04/07 09:20:18;;;;;;;3.30;0.45;;;22.60;52.40;23.90;101226.00;;;;4981213;28;20194;-78
2024/04/07 09:22:47;;;;;;;0.90;0.60;;;22.60;52.00;23.90;101245.00;;;;4993810;28;20208;-78
2024/04/07 09:25:14;;;;;;;1.95;0.50;;;22.60;51.70;23.80;101242.00;;;;4986412;28;20235;-79
2024/04/07 09:27:42;;;;;;;3.13;0.60;;;22.60;51.80;23.90;101241.00;;;;4987345;28;20296;-80
2024/04/07 09:30:09;;;;;;;1.00;0.60;;;22.60;51.70;23.90;101247.00;;;;4987732;28;20753;-79
2024/04/07 09:32:37;;;;;;;0.90;0.30;;;22.60;52.10;23.90;101245.00;;;;4987950;28;20194;-79
2024/04/07 09:35:04;;;;;;;1.23;0.60;;;22.60;52.00;23.90;101247.00;;;;4986429;28;20208;-79
2024/04/07 09:37:31;;;;;;;1.30;0.65;;;22.50;52.00;23.90;101240.00;;;;4988282;28;20216;-79
2024/04/07 09:39:57;;;;;;;1.92;0.63;;;22.60;51.80;23.90;101244.00;;;;4986994;28;20566;-78
2024/04/07 09:42:28;;;;;;;0.90;0.52;;;22.60;51.80;23.90;101239.00;;;;4989028;28;20206;-78
2024/04/07 09:44:57;;;;;;;2.00;0.47;;;22.60;51.80;24.00;101244.00;;;;4987131;28;20229;-78
2024/04/07 09:47:28;;;;;;;1.63;0.65;;;22.60;51.80;23.90;101240.00;;;;4991571;28;20673;-78
2024/04/07 09:50:04;;;;;;;0.88;0.43;;;22.50;51.50;23.90;101242.00;;;;4984837;28;20225;-78
2024/04/07 09:52:43;;;;;;;1.02;0.50;;;22.60;51.50;23.90;101246.00;;;;4982746;28;21018;-80
2024/04/07 09:55:15;;;;;;;6.93;0.70;;;22.60;51.50;23.90;101238.00;;;;4987611;28;20675;-79
2024/04/07 09:57:43;;;;;;;1.65;0.40;;;22.60;51.50;23.90;101241.00;;;;4987706;28;20292;-78
2024/04/07 10:00:12;;;;;;;1.67;0.45;;;22.60;51.40;23.80;101238.00;;;;4988184;28;20197;-78
2024/04/07 10:02:40;;;;;;;2.15;0.73;;;22.50;50.90;23.80;101239.00;;;;4989082;28;20197;-78
2024/04/07 10:05:06;;;;;;;1.83;0.60;;;22.50;51.00;23.80;101244.00;;;;4991016;28;20218;-78
2024/04/07 10:07:36;;;;;;;1.50;0.57;;;22.50;50.90;23.80;101236.00;;;;4988159;28;20293;-78
2024/04/07 10:10:04;;;;;;;1.05;0.40;;;22.50;50.90;23.70;101240.00;;;;4987018;28;20229;-79
2024/04/07 10:12:32;;;;;;;1.40;0.40;;;22.40;50.70;23.70;101237.00;;;;4988453;28;20209;-78
2024/04/07 10:14:59;;;;;;;1.15;0.57;;;22.40;50.70;23.70;101239.00;;;;4987236;28;20198;-79
2024/04/07 10:17:30;;;;;;;1.05;0.50;;;22.40;50.90;23.70;101231.00;;;;4987707;28;21068;-79
2024/04/07 10:19:58;;;;;;;1.98;0.50;;;22.40;51.00;23.80;101241.00;;;;4985119;28;20633;-78
2024/04/07 10:22:27;;;;;;;1.67;0.52;;;22.40;51.00;23.80;101237.00;;;;4988789;28;20206;-80
2024/04/07 10:24:55;;;;;;;1.83;0.52;;;22.40;51.20;23.90;101242.00;;;;4988211;28;20225;-77
2024/04/07 10:27:25;;;;;;;1.30;0.50;;;22.50;51.00;24.00;101229.00;;;;4989955;28;20754;-77
2024/04/07 10:29:52;;;;;;;1.40;0.63;;;22.60;50.80;24.00;101234.00;;;;4990774;28;21084;-78
2024/04/07 10:32:27;;;;;;;2.83;0.77;;;22.60;50.20;24.00;101246.00;;;;4991718;28;20209;-78
2024/04/07 10:35:03;;;;;;;1.55;0.47;;;22.60;49.60;24.00;101232.00;;;;4985597;28;20204;-77
2024/04/07 10:37:32;;;;;;;3.63;0.55;;;22.70;49.90;24.10;101241.00;;;;4991075;28;20196;-77
2024/04/07 10:40:00;;;;;;;1.83;0.77;;;22.80;49.90;24.20;101225.00;;;;4991669;28;20591;-77
2024/04/07 10:42:27;;;;;;;2.70;0.50;;;22.80;49.60;24.30;101239.00;;;;4994010;28;20674;-78
2024/04/07 10:44:55;;;;;;;3.00;0.60;;;22.90;49.50;24.30;101234.00;;;;4991663;28;20221;-79
2024/04/07 10:47:24;;;;;;;1.08;0.40;;;23.00;48.80;24.40;101226.00;;;;4988653;28;20722;-79
2024/04/07 10:49:51;;;;;;;1.23;0.20;;;23.00;47.90;24.40;101236.00;;;;4991638;28;20245;-78
2024/04/07 10:52:19;;;;;;;0.95;0.38;;;23.10;48.50;24.50;101247.00;;;;4988842;28;20657;-78